NCAR-RAP Real-Time Weather Data

Output produced by METARs form (10 April 2020  05:43 UTC)
found at http://weather.rap.ucar.edu/surface/
 
KORD 100451Z 30012G20KT 10SM CLR 03/M06 A2991 RMK AO2 SLP131 T00281056
KORD 100351Z 31012G22KT 10SM CLR 03/M05 A2989 RMK AO2 SLP126 T00331050
KORD 100251Z 30017G25KT 10SM FEW055 04/M06 A2988 RMK AO2 SLP124 T00391056 51031
KORD 100151Z 29010KT 10SM FEW050 03/M03 A2986 RMK AO2 SLP116 T00331033
KORD 100051Z 29012G20KT 10SM FEW050 FEW110 04/M03 A2982 RMK AO2 SLP103 T00391033
KORD 092351Z 29010KT 10SM FEW050 FEW070 SCT110 05/M05 A2979 RMK AO2 PK WND 31030/2256 GSB2256E05SNE11 SLP092 P0000 60000 T00501050 10100 20044 53017
KORD 092306Z 32019G28KT 10SM -SN BKN047 BKN060 BKN110 04/M03 A2979 RMK AO2 PK WND 31030/2256 GSB2256E05 P0000 T00441033
KORD 092257Z 33019G30KT 10SM -SNGS SCT040 BKN060 BKN110 05/M03 A2978 RMK AO2 PK WND 31030/2256 GSB56 PRESRR GS LGT P0000 T00501033
KORD 092251Z 31020G27KT 10SM -SN FEW035 BKN060 BKN110 07/M06 A2977 RMK AO2 PK WND 30030/2205 SNB50 SLP083 P0000 T00671061
KORD 092151Z 27013G23KT 10SM SCT035 BKN055 BKN085 07/M03 A2976 RMK AO2 PK WND 29036/2112 SNB17E32 SLP079 PRESENT WX VCSH P0000 T00671033
KORD 092051Z 31021G34KT 10SM FEW035 BKN065 BKN100 07/M06 A2974 RMK AO2 PK WND 26037/1954 SNE09 SLP074 PRESENT WX VCSH P0000 60000 T00721061 50001
KORD 091951Z 29016G32KT 10SM -SN SCT035 BKN055 BKN090 07/M06 A2974 RMK AO2 PK WND 30039/1907 SNB40 SLP075 P0000 T00721061
KORD 091851Z 32020G36KT 10SM FEW040 BKN070 BKN090 09/M07 A2974 RMK AO2 PK WND 28040/1829 SLP073 VCSH NW-E T00891072
KORD 091751Z 30021G34KT 10SM SCT070 BKN090 09/M08 A2974 RMK AO2 PK WND 29041/1702 SLP073 VCSH NW-N T00891083 10094 20044 56008
KORD 091651Z 30023G34KT 10SM SCT060 09/M06 A2975 RMK AO2 PK WND 28036/1608 SLP075 T00891061
KORD 091551Z 31024G37KT 10SM SCT055 08/M07 A2976 RMK AO2 PK WND 31037/1543 SLP078 T00781067
KORD 091451Z 28020G29KT 10SM SCT044 SCT200 07/M04 A2976 RMK AO2 PK WND 29030/1409 SLP081 T00671044 58002
KORD 091351Z 29014G26KT 10SM FEW037 FEW200 06/M03 A2978 RMK AO2 PK WND 31029/1329 SLP086 T00561028
KORD 091251Z 29012G26KT 10SM CLR 05/M03 A2978 RMK AO2 PK WND 27027/1224 SLP087 T00501033
KORD 091151Z 29013G20KT 10SM CLR 04/M03 A2977 RMK AO2 SLP083 70022 T00441033 10089 20044 53012
KORD 091051Z 28015G22KT 10SM FEW030 05/M03 A2974 RMK AO2 SLP074 T00501028
KORD 090951Z 29012G24KT 10SM CLR 06/M03 A2973 RMK AO2 SLP070 T00561028
KORD 090851Z 28012G22KT 10SM FEW090 07/M03 A2973 RMK AO2 PK WND 28027/0801 SLP068 T00671028 53014
KORD 090751Z 29015G24KT 10SM FEW150 FEW250 07/M02 A2971 RMK AO2 PK WND 29028/0731 SLP061 T00721022
KORD 090651Z 29016G27KT 10SM FEW250 08/M01 A2970 RMK AO2 PK WND 30029/0615 SLP056 T00831011